sensor_id;sensor_type;location;lat;lon;timestamp;P1;durP1;ratioP1;P2;durP2;ratioP2
56429;SDS011;42332;52.136;20.666;2022-10-31T00:02:16;84.25;;;39.08;;
56429;SDS011;42332;52.136;20.666;2022-10-31T00:04:41;85.10;;;35.70;;
56429;SDS011;42332;52.136;20.666;2022-10-31T00:07:06;76.68;;;33.53;;
56429;SDS011;42332;52.136;20.666;2022-10-31T00:09:32;70.15;;;33.38;;
56429;SDS011;42332;52.136;20.666;2022-10-31T00:11:57;66.00;;;30.35;;
56429;SDS011;42332;52.136;20.666;2022-10-31T00:14:22;66.55;;;30.58;;
56429;SDS011;42332;52.136;20.666;2022-10-31T00:16:48;68.32;;;29.58;;
56429;SDS011;42332;52.136;20.666;2022-10-31T00:19:13;63.03;;;28.88;;
56429;SDS011;42332;52.136;20.666;2022-10-31T00:21:38;64.50;;;29.00;;
56429;SDS011;42332;52.136;20.666;2022-10-31T00:24:04;63.38;;;28.65;;
56429;SDS011;42332;52.136;20.666;2022-10-31T00:26:30;63.38;;;27.60;;
56429;SDS011;42332;52.136;20.666;2022-10-31T00:28:56;60.08;;;29.23;;
56429;SDS011;42332;52.136;20.666;2022-10-31T00:31:23;50.60;;;25.88;;
56429;SDS011;42332;52.136;20.666;2022-10-31T00:33:48;56.70;;;27.92;;
56429;SDS011;42332;52.136;20.666;2022-10-31T00:36:14;60.42;;;27.92;;
56429;SDS011;42332;52.136;20.666;2022-10-31T00:38:42;53.80;;;25.58;;
56429;SDS011;42332;52.136;20.666;2022-10-31T00:41:08;58.70;;;25.02;;
56429;SDS011;42332;52.136;20.666;2022-10-31T00:43:34;52.67;;;25.77;;
56429;SDS011;42332;52.136;20.666;2022-10-31T00:46:00;51.70;;;23.90;;
56429;SDS011;42332;52.136;20.666;2022-10-31T00:48:25;49.15;;;24.27;;
56429;SDS011;42332;52.136;20.666;2022-10-31T00:50:50;50.60;;;24.52;;
56429;SDS011;42332;52.136;20.666;2022-10-31T00:53:16;50.50;;;23.40;;
56429;SDS011;42332;52.136;20.666;2022-10-31T00:55:41;53.08;;;23.88;;
56429;SDS011;42332;52.136;20.666;2022-10-31T00:58:06;51.58;;;24.52;;
56429;SDS011;42332;52.136;20.666;2022-10-31T01:00:32;50.33;;;22.20;;
56429;SDS011;42332;52.136;20.666;2022-10-31T01:02:57;49.83;;;24.55;;
56429;SDS011;42332;52.136;20.666;2022-10-31T01:05:22;48.67;;;22.92;;
56429;SDS011;42332;52.136;20.666;2022-10-31T01:07:48;53.17;;;23.73;;
56429;SDS011;42332;52.136;20.666;2022-10-31T01:10:13;43.53;;;21.45;;
56429;SDS011;42332;52.136;20.666;2022-10-31T01:12:42;49.55;;;21.77;;
56429;SDS011;42332;52.136;20.666;2022-10-31T01:15:12;47.55;;;21.90;;
56429;SDS011;42332;52.136;20.666;2022-10-31T01:17:39;52.25;;;22.48;;
56429;SDS011;42332;52.136;20.666;2022-10-31T01:20:05;58.42;;;23.33;;
56429;SDS011;42332;52.136;20.666;2022-10-31T01:22:31;58.38;;;26.35;;
56429;SDS011;42332;52.136;20.666;2022-10-31T01:24:57;55.28;;;25.27;;
56429;SDS011;42332;52.136;20.666;2022-10-31T01:27:22;51.58;;;24.23;;
56429;SDS011;42332;52.136;20.666;2022-10-31T01:29:47;63.35;;;28.05;;
56429;SDS011;42332;52.136;20.666;2022-10-31T01:32:13;66.63;;;27.48;;
56429;SDS011;42332;52.136;20.666;2022-10-31T01:34:38;69.40;;;29.48;;
56429;SDS011;42332;52.136;20.666;2022-10-31T01:37:03;65.28;;;28.63;;
56429;SDS011;42332;52.136;20.666;2022-10-31T01:39:29;62.35;;;28.75;;
56429;SDS011;42332;52.136;20.666;2022-10-31T01:41:54;61.38;;;27.67;;
56429;SDS011;42332;52.136;20.666;2022-10-31T01:46:46;56.58;;;27.02;;
56429;SDS011;42332;52.136;20.666;2022-10-31T01:49:15;63.78;;;28.48;;
56429;SDS011;42332;52.136;20.666;2022-10-31T01:51:45;59.08;;;24.92;;
56429;SDS011;42332;52.136;20.666;2022-10-31T01:54:14;49.53;;;23.15;;
56429;SDS011;42332;52.136;20.666;2022-10-31T01:56:42;44.42;;;22.35;;
56429;SDS011;42332;52.136;20.666;2022-10-31T01:59:10;39.72;;;19.38;;
56429;SDS011;42332;52.136;20.666;2022-10-31T02:01:37;44.53;;;20.73;;
56429;SDS011;42332;52.136;20.666;2022-10-31T02:04:03;41.97;;;20.85;;
56429;SDS011;42332;52.136;20.666;2022-10-31T02:06:32;49.97;;;20.70;;
56429;SDS011;42332;52.136;20.666;2022-10-31T02:09:01;40.30;;;20.83;;
56429;SDS011;42332;52.136;20.666;2022-10-31T02:11:28;39.97;;;19.00;;
56429;SDS011;42332;52.136;20.666;2022-10-31T02:13:54;53.90;;;21.58;;
56429;SDS011;42332;52.136;20.666;2022-10-31T02:16:19;39.28;;;18.88;;
56429;SDS011;42332;52.136;20.666;2022-10-31T02:18:45;40.40;;;18.95;;
56429;SDS011;42332;52.136;20.666;2022-10-31T02:21:13;42.67;;;20.10;;
56429;SDS011;42332;52.136;20.666;2022-10-31T02:32:02;39.70;;;18.10;;
56429;SDS011;42332;52.136;20.666;2022-10-31T02:35:09;40.33;;;19.67;;
56429;SDS011;42332;52.136;20.666;2022-10-31T02:40:25;38.45;;;17.00;;
56429;SDS011;42332;52.136;20.666;2022-10-31T02:45:30;35.70;;;17.35;;
56429;SDS011;42332;52.136;20.666;2022-10-31T02:48:03;31.25;;;15.55;;
56429;SDS011;42332;52.136;20.666;2022-10-31T02:50:34;38.28;;;16.23;;
56429;SDS011;42332;52.136;20.666;2022-10-31T02:53:04;35.60;;;17.13;;
56429;SDS011;42332;52.136;20.666;2022-10-31T02:57:59;39.75;;;16.40;;
56429;SDS011;42332;52.136;20.666;2022-10-31T03:00:28;33.38;;;15.48;;
56429;SDS011;42332;52.136;20.666;2022-10-31T03:08:50;31.00;;;15.02;;
56429;SDS011;42332;52.136;20.666;2022-10-31T03:11:28;32.65;;;14.93;;
56429;SDS011;42332;52.136;20.666;2022-10-31T03:13:57;33.53;;;15.70;;
56429;SDS011;42332;52.136;20.666;2022-10-31T03:16:36;39.90;;;15.75;;
56429;SDS011;42332;52.136;20.666;2022-10-31T03:19:08;35.45;;;16.20;;
56429;SDS011;42332;52.136;20.666;2022-10-31T03:24:03;33.47;;;14.70;;
56429;SDS011;42332;52.136;20.666;2022-10-31T03:26:30;33.55;;;14.43;;
56429;SDS011;42332;52.136;20.666;2022-10-31T03:28:57;31.45;;;15.27;;
56429;SDS011;42332;52.136;20.666;2022-10-31T03:31:28;34.00;;;14.40;;
56429;SDS011;42332;52.136;20.666;2022-10-31T03:33:55;34.90;;;15.32;;
56429;SDS011;42332;52.136;20.666;2022-10-31T03:36:23;37.92;;;16.00;;
56429;SDS011;42332;52.136;20.666;2022-10-31T03:38:50;32.33;;;15.27;;
56429;SDS011;42332;52.136;20.666;2022-10-31T03:41:18;31.33;;;15.95;;
56429;SDS011;42332;52.136;20.666;2022-10-31T03:43:52;31.02;;;14.45;;
56429;SDS011;42332;52.136;20.666;2022-10-31T03:46:20;29.05;;;14.23;;
56429;SDS011;42332;52.136;20.666;2022-10-31T03:48:46;34.63;;;14.95;;
56429;SDS011;42332;52.136;20.666;2022-10-31T03:53:45;34.47;;;15.65;;
56429;SDS011;42332;52.136;20.666;2022-10-31T03:58:45;30.38;;;15.05;;
56429;SDS011;42332;52.136;20.666;2022-10-31T04:01:14;32.05;;;15.27;;
56429;SDS011;42332;52.136;20.666;2022-10-31T04:03:41;30.23;;;13.88;;
56429;SDS011;42332;52.136;20.666;2022-10-31T04:06:08;30.88;;;15.13;;
56429;SDS011;42332;52.136;20.666;2022-10-31T04:08:43;30.45;;;15.75;;
56429;SDS011;42332;52.136;20.666;2022-10-31T04:11:10;31.98;;;16.88;;
56429;SDS011;42332;52.136;20.666;2022-10-31T04:13:37;28.42;;;14.73;;
56429;SDS011;42332;52.136;20.666;2022-10-31T04:16:03;34.95;;;14.48;;
56429;SDS011;42332;52.136;20.666;2022-10-31T04:18:29;37.03;;;15.98;;
56429;SDS011;42332;52.136;20.666;2022-10-31T04:21:01;34.67;;;15.40;;
56429;SDS011;42332;52.136;20.666;2022-10-31T04:23:27;40.72;;;16.05;;
56429;SDS011;42332;52.136;20.666;2022-10-31T04:25:53;32.00;;;16.15;;
56429;SDS011;42332;52.136;20.666;2022-10-31T04:28:18;33.17;;;16.45;;
56429;SDS011;42332;52.136;20.666;2022-10-31T04:30:44;34.28;;;15.07;;
56429;SDS011;42332;52.136;20.666;2022-10-31T04:33:09;33.90;;;15.43;;
56429;SDS011;42332;52.136;20.666;2022-10-31T04:35:34;41.60;;;16.95;;
56429;SDS011;42332;52.136;20.666;2022-10-31T04:38:00;30.95;;;15.63;;
56429;SDS011;42332;52.136;20.666;2022-10-31T04:40:25;39.53;;;15.77;;
56429;SDS011;42332;52.136;20.666;2022-10-31T04:42:50;32.22;;;14.20;;
56429;SDS011;42332;52.136;20.666;2022-10-31T04:45:16;30.20;;;15.05;;
56429;SDS011;42332;52.136;20.666;2022-10-31T04:47:42;33.53;;;16.20;;
56429;SDS011;42332;52.136;20.666;2022-10-31T04:50:08;32.00;;;15.48;;
56429;SDS011;42332;52.136;20.666;2022-10-31T04:52:38;37.50;;;16.23;;
56429;SDS011;42332;52.136;20.666;2022-10-31T04:55:04;26.42;;;13.68;;
56429;SDS011;42332;52.136;20.666;2022-10-31T04:57:30;40.17;;;15.25;;
56429;SDS011;42332;52.136;20.666;2022-10-31T04:59:55;37.63;;;14.50;;
56429;SDS011;42332;52.136;20.666;2022-10-31T05:02:20;35.72;;;14.50;;
56429;SDS011;42332;52.136;20.666;2022-10-31T05:04:46;31.08;;;14.77;;
56429;SDS011;42332;52.136;20.666;2022-10-31T05:07:11;30.35;;;14.95;;
56429;SDS011;42332;52.136;20.666;2022-10-31T05:09:37;31.00;;;14.50;;
56429;SDS011;42332;52.136;20.666;2022-10-31T05:12:02;24.55;;;12.80;;
56429;SDS011;42332;52.136;20.666;2022-10-31T05:14:28;33.47;;;14.77;;
56429;SDS011;42332;52.136;20.666;2022-10-31T05:16:53;27.92;;;14.88;;
56429;SDS011;42332;52.136;20.666;2022-10-31T05:19:19;33.88;;;13.80;;
56429;SDS011;42332;52.136;20.666;2022-10-31T05:21:44;33.17;;;15.05;;
56429;SDS011;42332;52.136;20.666;2022-10-31T05:24:09;33.60;;;16.58;;
56429;SDS011;42332;52.136;20.666;2022-10-31T05:26:35;30.92;;;14.68;;
56429;SDS011;42332;52.136;20.666;2022-10-31T05:29:00;29.23;;;14.82;;
56429;SDS011;42332;52.136;20.666;2022-10-31T05:31:25;27.50;;;13.07;;
56429;SDS011;42332;52.136;20.666;2022-10-31T05:33:51;25.50;;;12.45;;
56429;SDS011;42332;52.136;20.666;2022-10-31T05:36:16;27.92;;;13.32;;
56429;SDS011;42332;52.136;20.666;2022-10-31T05:38:41;33.78;;;14.82;;
56429;SDS011;42332;52.136;20.666;2022-10-31T05:41:07;29.45;;;14.23;;
56429;SDS011;42332;52.136;20.666;2022-10-31T05:43:32;31.80;;;15.63;;
56429;SDS011;42332;52.136;20.666;2022-10-31T05:45:57;37.17;;;14.77;;
56429;SDS011;42332;52.136;20.666;2022-10-31T05:48:23;28.20;;;13.63;;
56429;SDS011;42332;52.136;20.666;2022-10-31T05:50:48;32.13;;;14.02;;
56429;SDS011;42332;52.136;20.666;2022-10-31T05:53:14;33.50;;;15.25;;
56429;SDS011;42332;52.136;20.666;2022-10-31T05:55:39;37.60;;;14.55;;
56429;SDS011;42332;52.136;20.666;2022-10-31T05:58:08;30.88;;;14.68;;
56429;SDS011;42332;52.136;20.666;2022-10-31T06:00:34;32.42;;;14.15;;
56429;SDS011;42332;52.136;20.666;2022-10-31T06:03:04;30.27;;;15.45;;
56429;SDS011;42332;52.136;20.666;2022-10-31T06:05:30;38.75;;;17.85;;
56429;SDS011;42332;52.136;20.666;2022-10-31T06:07:56;43.05;;;18.83;;
56429;SDS011;42332;52.136;20.666;2022-10-31T06:10:22;42.25;;;18.63;;
56429;SDS011;42332;52.136;20.666;2022-10-31T06:12:48;40.72;;;18.60;;
56429;SDS011;42332;52.136;20.666;2022-10-31T06:15:13;39.28;;;17.60;;
56429;SDS011;42332;52.136;20.666;2022-10-31T06:17:39;39.33;;;17.80;;
56429;SDS011;42332;52.136;20.666;2022-10-31T06:20:05;38.38;;;17.98;;
56429;SDS011;42332;52.136;20.666;2022-10-31T06:22:31;38.63;;;17.33;;
56429;SDS011;42332;52.136;20.666;2022-10-31T06:24:56;35.60;;;17.35;;
56429;SDS011;42332;52.136;20.666;2022-10-31T06:27:21;34.38;;;16.02;;
56429;SDS011;42332;52.136;20.666;2022-10-31T06:29:47;32.70;;;15.82;;
56429;SDS011;42332;52.136;20.666;2022-10-31T06:32:13;38.75;;;18.52;;
56429;SDS011;42332;52.136;20.666;2022-10-31T06:34:39;40.67;;;20.65;;
56429;SDS011;42332;52.136;20.666;2022-10-31T06:37:11;58.20;;;26.13;;
56429;SDS011;42332;52.136;20.666;2022-10-31T06:39:37;45.25;;;23.70;;
56429;SDS011;42332;52.136;20.666;2022-10-31T06:42:03;51.83;;;27.55;;
56429;SDS011;42332;52.136;20.666;2022-10-31T06:44:28;50.97;;;26.15;;
56429;SDS011;42332;52.136;20.666;2022-10-31T06:46:54;46.53;;;23.42;;
56429;SDS011;42332;52.136;20.666;2022-10-31T06:49:19;42.13;;;21.48;;
56429;SDS011;42332;52.136;20.666;2022-10-31T06:51:48;42.95;;;19.73;;
56429;SDS011;42332;52.136;20.666;2022-10-31T06:54:14;37.17;;;16.45;;
56429;SDS011;42332;52.136;20.666;2022-10-31T06:56:39;36.00;;;17.23;;
56429;SDS011;42332;52.136;20.666;2022-10-31T06:59:05;34.58;;;16.50;;
56429;SDS011;42332;52.136;20.666;2022-10-31T07:01:30;39.60;;;15.65;;
56429;SDS011;42332;52.136;20.666;2022-10-31T07:03:55;31.40;;;14.63;;
56429;SDS011;42332;52.136;20.666;2022-10-31T07:06:21;35.83;;;14.77;;
56429;SDS011;42332;52.136;20.666;2022-10-31T07:08:46;33.70;;;15.00;;
56429;SDS011;42332;52.136;20.666;2022-10-31T07:11:12;31.67;;;13.27;;
56429;SDS011;42332;52.136;20.666;2022-10-31T07:13:37;36.75;;;12.27;;
56429;SDS011;42332;52.136;20.666;2022-10-31T07:16:03;23.50;;;11.18;;
56429;SDS011;42332;52.136;20.666;2022-10-31T07:18:29;26.50;;;11.27;;
56429;SDS011;42332;52.136;20.666;2022-10-31T07:20:55;28.70;;;11.55;;
56429;SDS011;42332;52.136;20.666;2022-10-31T07:23:20;24.27;;;12.13;;
56429;SDS011;42332;52.136;20.666;2022-10-31T07:25:46;26.85;;;13.07;;
56429;SDS011;42332;52.136;20.666;2022-10-31T07:28:11;31.23;;;13.52;;
56429;SDS011;42332;52.136;20.666;2022-10-31T07:30:37;35.08;;;15.25;;
56429;SDS011;42332;52.136;20.666;2022-10-31T07:33:03;30.17;;;14.43;;
56429;SDS011;42332;52.136;20.666;2022-10-31T07:35:29;27.15;;;13.27;;
56429;SDS011;42332;52.136;20.666;2022-10-31T07:37:55;23.30;;;12.52;;
56429;SDS011;42332;52.136;20.666;2022-10-31T07:40:21;22.58;;;11.65;;
56429;SDS011;42332;52.136;20.666;2022-10-31T07:42:47;22.45;;;10.73;;
56429;SDS011;42332;52.136;20.666;2022-10-31T07:45:16;31.30;;;11.63;;
56429;SDS011;42332;52.136;20.666;2022-10-31T07:47:45;24.42;;;11.60;;
56429;SDS011;42332;52.136;20.666;2022-10-31T07:50:13;23.02;;;10.15;;
56429;SDS011;42332;52.136;20.666;2022-10-31T07:53:06;23.92;;;11.10;;
56429;SDS011;42332;52.136;20.666;2022-10-31T07:55:33;22.38;;;10.55;;
56429;SDS011;42332;52.136;20.666;2022-10-31T07:57:59;29.58;;;11.57;;
56429;SDS011;42332;52.136;20.666;2022-10-31T08:00:25;22.83;;;10.18;;
56429;SDS011;42332;52.136;20.666;2022-10-31T08:02:58;32.10;;;11.93;;
56429;SDS011;42332;52.136;20.666;2022-10-31T08:05:23;25.13;;;11.15;;
56429;SDS011;42332;52.136;20.666;2022-10-31T08:07:48;20.50;;;9.98;;
56429;SDS011;42332;52.136;20.666;2022-10-31T08:10:14;24.77;;;11.45;;
56429;SDS011;42332;52.136;20.666;2022-10-31T08:12:39;23.70;;;10.02;;
56429;SDS011;42332;52.136;20.666;2022-10-31T08:15:05;26.35;;;12.00;;
56429;SDS011;42332;52.136;20.666;2022-10-31T08:17:30;24.13;;;11.13;;
56429;SDS011;42332;52.136;20.666;2022-10-31T08:20:00;23.70;;;11.68;;
56429;SDS011;42332;52.136;20.666;2022-10-31T08:22:25;25.90;;;11.85;;
56429;SDS011;42332;52.136;20.666;2022-10-31T08:24:50;26.73;;;13.02;;
56429;SDS011;42332;52.136;20.666;2022-10-31T08:27:16;26.52;;;11.27;;
56429;SDS011;42332;52.136;20.666;2022-10-31T08:29:41;26.33;;;12.02;;
56429;SDS011;42332;52.136;20.666;2022-10-31T08:32:06;30.15;;;11.50;;
56429;SDS011;42332;52.136;20.666;2022-10-31T08:34:32;23.63;;;11.10;;
56429;SDS011;42332;52.136;20.666;2022-10-31T08:36:57;23.45;;;12.35;;
56429;SDS011;42332;52.136;20.666;2022-10-31T08:39:23;25.02;;;12.82;;
56429;SDS011;42332;52.136;20.666;2022-10-31T08:41:48;23.08;;;12.63;;
56429;SDS011;42332;52.136;20.666;2022-10-31T08:44:14;26.00;;;12.85;;
56429;SDS011;42332;52.136;20.666;2022-10-31T08:46:40;26.15;;;12.75;;
56429;SDS011;42332;52.136;20.666;2022-10-31T08:49:06;28.48;;;13.38;;
56429;SDS011;42332;52.136;20.666;2022-10-31T08:51:31;24.00;;;13.77;;
56429;SDS011;42332;52.136;20.666;2022-10-31T08:53:56;26.58;;;13.75;;
56429;SDS011;42332;52.136;20.666;2022-10-31T08:56:22;26.42;;;13.00;;
56429;SDS011;42332;52.136;20.666;2022-10-31T08:58:48;23.52;;;12.68;;
56429;SDS011;42332;52.136;20.666;2022-10-31T09:01:13;28.65;;;12.63;;
56429;SDS011;42332;52.136;20.666;2022-10-31T09:03:39;27.52;;;14.38;;
56429;SDS011;42332;52.136;20.666;2022-10-31T09:06:04;22.23;;;12.80;;
56429;SDS011;42332;52.136;20.666;2022-10-31T09:08:33;31.70;;;14.13;;
56429;SDS011;42332;52.136;20.666;2022-10-31T09:10:59;25.88;;;13.45;;
56429;SDS011;42332;52.136;20.666;2022-10-31T09:13:24;29.02;;;14.43;;
56429;SDS011;42332;52.136;20.666;2022-10-31T09:15:50;28.08;;;13.40;;
56429;SDS011;42332;52.136;20.666;2022-10-31T09:18:16;25.73;;;12.77;;
56429;SDS011;42332;52.136;20.666;2022-10-31T09:20:43;30.83;;;14.32;;
56429;SDS011;42332;52.136;20.666;2022-10-31T09:23:11;29.58;;;13.82;;
56429;SDS011;42332;52.136;20.666;2022-10-31T09:25:41;32.50;;;15.02;;
56429;SDS011;42332;52.136;20.666;2022-10-31T09:28:07;39.78;;;15.30;;
56429;SDS011;42332;52.136;20.666;2022-10-31T09:30:35;34.13;;;14.07;;
56429;SDS011;42332;52.136;20.666;2022-10-31T09:33:04;38.20;;;16.50;;
56429;SDS011;42332;52.136;20.666;2022-10-31T09:35:34;38.92;;;16.20;;
56429;SDS011;42332;52.136;20.666;2022-10-31T09:38:00;37.15;;;15.95;;
56429;SDS011;42332;52.136;20.666;2022-10-31T09:49:16;39.92;;;16.48;;
56429;SDS011;42332;52.136;20.666;2022-10-31T09:51:50;29.60;;;14.73;;
56429;SDS011;42332;52.136;20.666;2022-10-31T09:54:20;38.92;;;17.60;;
56429;SDS011;42332;52.136;20.666;2022-10-31T09:56:50;39.15;;;17.17;;
56429;SDS011;42332;52.136;20.666;2022-10-31T09:59:21;40.45;;;17.60;;
56429;SDS011;42332;52.136;20.666;2022-10-31T10:01:58;38.30;;;17.38;;
56429;SDS011;42332;52.136;20.666;2022-10-31T10:04:49;40.85;;;17.02;;
56429;SDS011;42332;52.136;20.666;2022-10-31T10:07:40;35.50;;;14.85;;
56429;SDS011;42332;52.136;20.666;2022-10-31T10:10:13;46.05;;;17.65;;
56429;SDS011;42332;52.136;20.666;2022-10-31T10:15:35;37.75;;;16.73;;
56429;SDS011;42332;52.136;20.666;2022-10-31T10:23:56;40.50;;;17.50;;
56429;SDS011;42332;52.136;20.666;2022-10-31T10:26:29;40.60;;;15.98;;
56429;SDS011;42332;52.136;20.666;2022-10-31T10:28:57;46.85;;;17.92;;
56429;SDS011;42332;52.136;20.666;2022-10-31T10:31:28;50.22;;;18.70;;
56429;SDS011;42332;52.136;20.666;2022-10-31T10:36:40;43.13;;;17.95;;
56429;SDS011;42332;52.136;20.666;2022-10-31T10:41:45;43.60;;;18.25;;
56429;SDS011;42332;52.136;20.666;2022-10-31T10:44:32;45.50;;;18.80;;
56429;SDS011;42332;52.136;20.666;2022-10-31T10:47:16;45.67;;;18.85;;
56429;SDS011;42332;52.136;20.666;2022-10-31T10:50:00;44.33;;;18.50;;
56429;SDS011;42332;52.136;20.666;2022-10-31T10:58:03;48.13;;;21.95;;
56429;SDS011;42332;52.136;20.666;2022-10-31T11:02:57;49.97;;;20.40;;
56429;SDS011;42332;52.136;20.666;2022-10-31T11:05:24;53.92;;;22.38;;
56429;SDS011;42332;52.136;20.666;2022-10-31T11:07:53;50.55;;;19.38;;
56429;SDS011;42332;52.136;20.666;2022-10-31T11:10:18;53.97;;;21.80;;
56429;SDS011;42332;52.136;20.666;2022-10-31T11:12:45;51.95;;;21.90;;
56429;SDS011;42332;52.136;20.666;2022-10-31T11:15:23;43.88;;;20.95;;
56429;SDS011;42332;52.136;20.666;2022-10-31T11:17:51;47.88;;;21.95;;
56429;SDS011;42332;52.136;20.666;2022-10-31T11:22:44;50.78;;;23.58;;
56429;SDS011;42332;52.136;20.666;2022-10-31T11:27:44;49.88;;;23.08;;
56429;SDS011;42332;52.136;20.666;2022-10-31T11:30:14;50.85;;;22.70;;
56429;SDS011;42332;52.136;20.666;2022-10-31T11:32:42;51.45;;;23.83;;
56429;SDS011;42332;52.136;20.666;2022-10-31T11:35:11;52.05;;;23.55;;
56429;SDS011;42332;52.136;20.666;2022-10-31T11:37:41;48.00;;;23.15;;
56429;SDS011;42332;52.136;20.666;2022-10-31T11:40:14;53.30;;;23.25;;
56429;SDS011;42332;52.136;20.666;2022-10-31T11:42:45;50.75;;;21.92;;
56429;SDS011;42332;52.136;20.666;2022-10-31T11:47:40;50.05;;;23.98;;
56429;SDS011;42332;52.136;20.666;2022-10-31T11:50:11;51.05;;;23.17;;
56429;SDS011;42332;52.136;20.666;2022-10-31T11:52:44;51.03;;;24.95;;
56429;SDS011;42332;52.136;20.666;2022-10-31T11:57:44;52.10;;;25.05;;
56429;SDS011;42332;52.136;20.666;2022-10-31T12:00:21;47.92;;;24.77;;
56429;SDS011;42332;52.136;20.666;2022-10-31T12:08:35;46.67;;;22.17;;
56429;SDS011;42332;52.136;20.666;2022-10-31T12:17:13;55.20;;;25.05;;
56429;SDS011;42332;52.136;20.666;2022-10-31T12:20:44;52.17;;;22.92;;
56429;SDS011;42332;52.136;20.666;2022-10-31T12:36:46;52.35;;;24.80;;
56429;SDS011;42332;52.136;20.666;2022-10-31T12:49:46;58.00;;;25.30;;
56429;SDS011;42332;52.136;20.666;2022-10-31T12:52:37;63.80;;;26.20;;
56429;SDS011;42332;52.136;20.666;2022-10-31T12:58:02;55.10;;;25.50;;
56429;SDS011;42332;52.136;20.666;2022-10-31T13:00:34;57.45;;;26.60;;
56429;SDS011;42332;52.136;20.666;2022-10-31T13:05:53;52.67;;;24.58;;
56429;SDS011;42332;52.136;20.666;2022-10-31T13:08:25;59.45;;;25.02;;
56429;SDS011;42332;52.136;20.666;2022-10-31T13:11:15;65.03;;;27.40;;
56429;SDS011;42332;52.136;20.666;2022-10-31T13:13:53;55.55;;;24.80;;
56429;SDS011;42332;52.136;20.666;2022-10-31T13:16:24;59.42;;;24.48;;
56429;SDS011;42332;52.136;20.666;2022-10-31T13:18:54;62.63;;;25.58;;
56429;SDS011;42332;52.136;20.666;2022-10-31T13:21:51;61.40;;;26.75;;
56429;SDS011;42332;52.136;20.666;2022-10-31T13:24:18;62.47;;;27.30;;
56429;SDS011;42332;52.136;20.666;2022-10-31T13:31:47;66.00;;;28.17;;
56429;SDS011;42332;52.136;20.666;2022-10-31T13:40:23;55.53;;;26.42;;
56429;SDS011;42332;52.136;20.666;2022-10-31T13:45:19;62.05;;;26.40;;
56429;SDS011;42332;52.136;20.666;2022-10-31T13:47:59;75.35;;;28.02;;
56429;SDS011;42332;52.136;20.666;2022-10-31T13:50:31;65.60;;;30.50;;
56429;SDS011;42332;52.136;20.666;2022-10-31T13:53:09;68.63;;;28.45;;
56429;SDS011;42332;52.136;20.666;2022-10-31T13:58:22;70.82;;;27.77;;
56429;SDS011;42332;52.136;20.666;2022-10-31T14:03:28;73.30;;;28.85;;
56429;SDS011;42332;52.136;20.666;2022-10-31T14:05:55;69.47;;;28.58;;
56429;SDS011;42332;52.136;20.666;2022-10-31T14:08:21;64.68;;;26.60;;
56429;SDS011;42332;52.136;20.666;2022-10-31T14:10:52;70.38;;;27.02;;
56429;SDS011;42332;52.136;20.666;2022-10-31T14:13:23;66.63;;;27.55;;
56429;SDS011;42332;52.136;20.666;2022-10-31T14:15:57;69.47;;;28.05;;
56429;SDS011;42332;52.136;20.666;2022-10-31T14:18:47;72.63;;;28.80;;
56429;SDS011;42332;52.136;20.666;2022-10-31T14:21:25;67.38;;;27.35;;
56429;SDS011;42332;52.136;20.666;2022-10-31T14:23:53;72.68;;;29.05;;
56429;SDS011;42332;52.136;20.666;2022-10-31T14:28:54;68.28;;;27.58;;
56429;SDS011;42332;52.136;20.666;2022-10-31T14:31:42;68.32;;;28.20;;
56429;SDS011;42332;52.136;20.666;2022-10-31T14:50:48;82.05;;;28.33;;
56429;SDS011;42332;52.136;20.666;2022-10-31T14:53:20;79.80;;;30.17;;
56429;SDS011;42332;52.136;20.666;2022-10-31T14:55:49;75.55;;;27.30;;
56429;SDS011;42332;52.136;20.666;2022-10-31T14:58:18;72.32;;;29.35;;
56429;SDS011;42332;52.136;20.666;2022-10-31T15:00:46;85.10;;;28.92;;
56429;SDS011;42332;52.136;20.666;2022-10-31T15:03:15;78.63;;;27.38;;
56429;SDS011;42332;52.136;20.666;2022-10-31T15:05:50;73.57;;;27.17;;
56429;SDS011;42332;52.136;20.666;2022-10-31T15:11:21;81.55;;;26.55;;
56429;SDS011;42332;52.136;20.666;2022-10-31T15:13:51;75.30;;;28.20;;
56429;SDS011;42332;52.136;20.666;2022-10-31T15:16:22;90.72;;;29.45;;
56429;SDS011;42332;52.136;20.666;2022-10-31T15:18:54;96.57;;;31.13;;
56429;SDS011;42332;52.136;20.666;2022-10-31T15:21:21;84.38;;;29.02;;
56429;SDS011;42332;52.136;20.666;2022-10-31T15:23:48;92.35;;;28.40;;
56429;SDS011;42332;52.136;20.666;2022-10-31T15:26:19;101.13;;;31.25;;
56429;SDS011;42332;52.136;20.666;2022-10-31T15:28:46;86.25;;;30.20;;
56429;SDS011;42332;52.136;20.666;2022-10-31T15:31:25;85.55;;;31.05;;
56429;SDS011;42332;52.136;20.666;2022-10-31T15:33:51;89.30;;;27.58;;
56429;SDS011;42332;52.136;20.666;2022-10-31T15:36:23;80.60;;;27.60;;
56429;SDS011;42332;52.136;20.666;2022-10-31T15:38:50;86.05;;;27.15;;
56429;SDS011;42332;52.136;20.666;2022-10-31T15:41:22;79.50;;;26.75;;
56429;SDS011;42332;52.136;20.666;2022-10-31T15:43:48;81.85;;;26.90;;
56429;SDS011;42332;52.136;20.666;2022-10-31T15:46:13;70.35;;;25.30;;
56429;SDS011;42332;52.136;20.666;2022-10-31T15:48:39;80.20;;;25.65;;
56429;SDS011;42332;52.136;20.666;2022-10-31T15:51:09;78.85;;;25.90;;
56429;SDS011;42332;52.136;20.666;2022-10-31T15:53:35;83.35;;;24.55;;
56429;SDS011;42332;52.136;20.666;2022-10-31T15:56:12;80.50;;;23.85;;
56429;SDS011;42332;52.136;20.666;2022-10-31T15:58:45;76.15;;;25.23;;
56429;SDS011;42332;52.136;20.666;2022-10-31T16:06:23;71.38;;;24.45;;
56429;SDS011;42332;52.136;20.666;2022-10-31T16:08:49;86.72;;;25.42;;
56429;SDS011;42332;52.136;20.666;2022-10-31T16:11:23;79.18;;;25.20;;
56429;SDS011;42332;52.136;20.666;2022-10-31T16:16:44;81.95;;;25.58;;
56429;SDS011;42332;52.136;20.666;2022-10-31T16:19:19;76.82;;;22.73;;
56429;SDS011;42332;52.136;20.666;2022-10-31T16:21:51;89.25;;;24.10;;
56429;SDS011;42332;52.136;20.666;2022-10-31T16:24:25;83.72;;;24.88;;
56429;SDS011;42332;52.136;20.666;2022-10-31T16:27:06;75.50;;;24.08;;
56429;SDS011;42332;52.136;20.666;2022-10-31T16:29:43;72.32;;;23.05;;
56429;SDS011;42332;52.136;20.666;2022-10-31T16:38:13;73.45;;;24.75;;
56429;SDS011;42332;52.136;20.666;2022-10-31T16:40:38;78.03;;;25.05;;
56429;SDS011;42332;52.136;20.666;2022-10-31T16:43:04;76.00;;;26.10;;
56429;SDS011;42332;52.136;20.666;2022-10-31T16:45:31;85.32;;;25.75;;
56429;SDS011;42332;52.136;20.666;2022-10-31T16:48:01;75.68;;;26.60;;
56429;SDS011;42332;52.136;20.666;2022-10-31T16:50:28;80.45;;;25.38;;
56429;SDS011;42332;52.136;20.666;2022-10-31T16:52:53;73.53;;;25.48;;
56429;SDS011;42332;52.136;20.666;2022-10-31T16:55:20;60.47;;;21.58;;
56429;SDS011;42332;52.136;20.666;2022-10-31T16:57:52;65.40;;;22.40;;
56429;SDS011;42332;52.136;20.666;2022-10-31T17:00:20;65.18;;;21.70;;
56429;SDS011;42332;52.136;20.666;2022-10-31T17:02:47;62.45;;;20.23;;
56429;SDS011;42332;52.136;20.666;2022-10-31T17:05:14;51.00;;;21.45;;
56429;SDS011;42332;52.136;20.666;2022-10-31T17:07:41;55.75;;;20.98;;